Time;durP1;ratioP1;P1;durP2;ratioP2;P2;SDS_P1;SDS_P2;PMS_P1;PMS_P2;Temp;Humidity;BMP_temperature;BMP_pressure;BME280_temperature;BME280_humidity;BME280_pressure;Samples;Min_cycle;Max_cycle;Signal;HPM_P1;HPM_P2
2023/06/28 00:00:42;;;;;;;4.23;2.30;;;;;;;25.15;49.29;100485.81;5090548;28;20332;-64
2023/06/28 00:03:10;;;;;;;3.60;2.13;;;;;;;25.16;49.71;100483.72;5090060;28;20170;-64
2023/06/28 00:05:36;;;;;;;4.00;1.90;;;;;;;25.16;49.47;100483.72;5055096;28;20198;-64
2023/06/28 00:08:02;;;;;;;4.00;2.17;;;;;;;25.15;49.42;100487.84;5070128;28;20551;-64
2023/06/28 00:10:27;;;;;;;4.40;2.03;;;;;;;25.15;49.48;100494.47;5072347;28;20943;-64
2023/06/28 00:12:53;;;;;;;4.23;2.07;;;;;;;25.15;49.62;100482.91;5070046;28;20213;-64
2023/06/28 00:15:18;;;;;;;4.30;2.60;;;;;;;25.15;49.16;100482.06;5090335;28;20186;-64
2023/06/28 00:17:43;;;;;;;6.87;2.10;;;;;;;25.14;49.27;100481.25;5074011;28;20194;-64
2023/06/28 00:20:10;;;;;;;4.67;2.03;;;;;;;25.14;49.56;100481.25;5074361;28;20155;-64
2023/06/28 00:22:36;;;;;;;3.90;1.90;;;;;;;25.13;49.75;100479.59;5081998;28;20260;-64
2023/06/28 00:25:05;;;;;;;5.17;2.13;;;;;;;25.14;49.86;100478.34;5053660;28;20445;-64
2023/06/28 00:27:31;;;;;;;4.10;2.20;;;;;;;25.14;49.73;100474.66;5053817;28;20183;-64
2023/06/28 00:29:56;;;;;;;4.67;2.27;;;;;;;25.13;49.49;100465.16;5071538;28;20420;-64
2023/06/28 00:32:23;;;;;;;4.00;2.20;;;;;;;25.14;49.75;100469.69;5073119;28;20207;-65
2023/06/28 00:34:48;;;;;;;4.90;2.07;;;;;;;25.13;50.14;100476.72;5052517;28;20258;-64
2023/06/28 00:37:14;;;;;;;5.30;2.30;;;;;;;25.14;50.27;100484.13;5076418;28;20864;-64
2023/06/28 00:39:39;;;;;;;5.43;2.00;;;;;;;25.13;50.28;100479.59;5089028;28;20517;-64
2023/06/28 00:42:05;;;;;;;5.23;1.90;;;;;;;25.14;49.95;100494.88;5087790;28;20560;-64
2023/06/28 00:44:30;;;;;;;3.70;1.90;;;;;;;25.14;50.22;100492.81;5072343;28;20704;-64
2023/06/28 00:46:56;;;;;;;4.27;2.07;;;;;;;25.13;49.79;100485.38;5061501;28;20186;-64
2023/06/28 00:49:22;;;;;;;6.00;2.73;;;;;;;25.13;50.11;100496.94;5071182;28;20174;-64
2023/06/28 00:51:48;;;;;;;3.80;2.07;;;;;;;25.13;50.14;100499.84;5069476;28;20587;-64
2023/06/28 00:54:14;;;;;;;5.60;1.97;;;;;;;25.13;49.93;100496.13;5060390;28;20421;-64
2023/06/28 00:56:39;;;;;;;3.30;2.00;;;;;;;25.13;50.23;100490.34;5072054;28;20838;-64
2023/06/28 00:59:05;;;;;;;3.90;1.90;;;;;;;25.12;50.33;100489.53;5090302;28;20673;-65
2023/06/28 01:01:30;;;;;;;3.50;1.90;;;;;;;25.12;50.05;100489.53;5068291;28;20271;-64
2023/06/28 01:03:56;;;;;;;3.10;2.03;;;;;;;25.11;50.27;100487.88;5088705;28;20591;-64
2023/06/28 01:06:22;;;;;;;8.60;2.40;;;;;;;25.12;50.06;100488.69;5072962;28;20198;-64
2023/06/28 01:08:47;;;;;;;3.23;1.93;;;;;;;25.12;50.42;100495.31;5072886;28;20424;-64
2023/06/28 01:11:12;;;;;;;4.00;2.03;;;;;;;25.13;50.16;100493.25;5064297;28;20979;-64
2023/06/28 01:13:38;;;;;;;4.63;2.20;;;;;;;25.11;49.93;100496.56;5061838;28;20204;-64
2023/06/28 01:16:04;;;;;;;3.80;2.27;;;;;;;25.11;50.44;100495.72;5072733;28;20154;-64
2023/06/28 01:18:33;;;;;;;3.20;2.27;;;;;;;25.11;50.32;100490.78;5056361;28;20240;-64
2023/06/28 01:21:00;;;;;;;4.03;2.10;;;;;;;25.11;50.29;100493.66;5071107;28;20520;-64
2023/06/28 01:23:26;;;;;;;3.30;2.13;;;;;;;25.10;50.65;100486.25;5047947;28;20495;-64
2023/06/28 01:25:52;;;;;;;4.80;2.30;;;;;;;25.10;50.39;100497.81;5062493;28;20429;-64
2023/06/28 01:28:19;;;;;;;4.60;2.33;;;;;;;25.10;50.33;100494.09;5090606;28;20174;-64
2023/06/28 01:30:48;;;;;;;7.70;2.03;;;;;;;25.11;50.49;100495.72;5065025;28;20533;-65
2023/06/28 01:33:17;;;;;;;3.90;2.00;;;;;;;25.10;50.45;100494.91;5069361;28;20448;-64
2023/06/28 01:35:42;;;;;;;3.20;2.03;;;;;;;25.10;50.12;100503.59;5051437;28;20404;-65
2023/06/28 01:38:08;;;;;;;3.50;2.07;;;;;;;25.09;50.67;100496.13;5078321;28;20979;-64
2023/06/28 01:40:36;;;;;;;3.90;1.87;;;;;;;25.09;51.06;100499.03;5060287;28;20183;-64
2023/06/28 01:43:05;;;;;;;3.77;2.10;;;;;;;25.09;50.66;100493.25;5081316;28;20812;-65
2023/06/28 01:45:31;;;;;;;5.63;2.40;;;;;;;25.09;50.65;100490.34;5082100;28;20437;-64
2023/06/28 01:47:56;;;;;;;5.13;2.23;;;;;;;25.08;50.71;100491.59;5063368;28;20758;-64
2023/06/28 01:50:21;;;;;;;4.43;2.40;;;;;;;25.07;50.66;100492.84;5071313;28;20196;-65
2023/06/28 01:52:47;;;;;;;3.30;1.93;;;;;;;25.08;50.53;100494.50;5061082;28;20325;-64
2023/06/28 01:55:12;;;;;;;4.50;2.20;;;;;;;25.08;50.44;100500.28;5088257;28;20234;-65
2023/06/28 01:57:38;;;;;;;6.10;1.73;;;;;;;25.07;50.71;100495.75;5088274;28;20174;-64
2023/06/28 02:00:08;;;;;;;7.83;2.47;;;;;;;25.07;50.81;100504.41;5088825;28;20283;-64
2023/06/28 02:02:34;;;;;;;3.57;2.07;;;;;;;25.06;50.68;100494.09;5074349;28;20569;-64
2023/06/28 02:04:59;;;;;;;2.90;1.90;;;;;;;25.07;50.99;100500.69;5070171;28;20424;-65
2023/06/28 02:07:25;;;;;;;4.73;2.00;;;;;;;25.06;50.72;100499.03;5072119;28;20281;-64
2023/06/28 02:09:50;;;;;;;2.90;2.00;;;;;;;25.06;50.81;100494.09;5051862;28;20163;-65
2023/06/28 02:12:15;;;;;;;4.17;2.10;;;;;;;25.06;50.67;100494.09;5070489;28;20191;-64
2023/06/28 02:14:41;;;;;;;4.67;2.27;;;;;;;25.06;50.60;100490.38;5089940;28;20183;-64
2023/06/28 02:17:13;;;;;;;3.30;1.67;;;;;;;25.07;51.10;100486.25;5090122;28;20162;-65
2023/06/28 02:19:41;;;;;;;3.70;1.83;;;;;;;25.06;50.79;100484.59;5072718;28;20174;-65
2023/06/28 02:22:07;;;;;;;5.50;2.30;;;;;;;25.06;50.75;100491.22;5075315;28;20438;-64
2023/06/28 02:24:33;;;;;;;3.53;2.10;;;;;;;25.05;50.85;100489.56;5069552;28;20420;-65
2023/06/28 02:26:58;;;;;;;5.37;1.90;;;;;;;25.06;50.64;100493.28;5071391;28;20445;-64
2023/06/28 02:29:24;;;;;;;3.67;2.13;;;;;;;25.05;50.79;100486.69;5088668;28;20167;-64
2023/06/28 02:31:49;;;;;;;3.47;2.00;;;;;;;25.04;50.98;100487.91;5070545;28;20186;-65
2023/06/28 02:34:15;;;;;;;3.97;2.13;;;;;;;25.04;51.21;100485.00;5088637;28;20162;-65
2023/06/28 02:36:40;;;;;;;4.63;2.30;;;;;;;25.05;51.03;100489.56;5060702;28;20193;-65
2023/06/28 02:39:06;;;;;;;4.83;2.40;;;;;;;25.04;51.14;100487.91;5033207;28;20167;-65
2023/06/28 02:41:31;;;;;;;4.67;2.03;;;;;;;25.05;51.19;100488.75;5068385;28;20202;-65
2023/06/28 02:43:56;;;;;;;3.40;2.07;;;;;;;25.03;51.23;100483.38;5087312;28;20182;-65
2023/06/28 02:46:22;;;;;;;5.40;2.83;;;;;;;25.03;51.06;100482.56;5058075;28;20187;-64
2023/06/28 02:48:47;;;;;;;4.60;2.40;;;;;;;25.03;50.95;100479.69;5079356;28;20227;-64
2023/06/28 02:51:13;;;;;;;5.50;2.40;;;;;;;25.03;51.02;100480.50;5086732;28;20202;-64
2023/06/28 02:53:38;;;;;;;3.20;1.83;;;;;;;25.03;51.49;100492.03;5073229;28;20183;-65
2023/06/28 02:56:04;;;;;;;3.67;1.70;;;;;;;25.03;51.47;100476.78;5067757;28;20171;-65
2023/06/28 02:58:29;;;;;;;4.37;2.20;;;;;;;25.03;51.71;100489.16;5067951;28;20277;-65
2023/06/28 03:00:57;;;;;;;4.10;2.07;;;;;;;25.03;51.81;100482.56;5067473;28;20227;-64
2023/06/28 03:03:23;;;;;;;4.13;1.90;;;;;;;25.02;51.50;100487.53;5085242;28;21002;-64
2023/06/28 03:05:48;;;;;;;6.20;1.90;;;;;;;25.02;51.54;100495.34;5088333;28;20446;-65
2023/06/28 03:08:13;;;;;;;2.97;1.73;;;;;;;25.02;51.75;100493.28;5084096;28;20178;-65
2023/06/28 03:10:39;;;;;;;3.00;1.70;;;;;;;25.02;51.85;100496.19;5070723;28;20175;-64
2023/06/28 03:13:05;;;;;;;6.00;2.10;;;;;;;25.02;51.82;100496.19;5088269;28;20259;-65
2023/06/28 03:15:30;;;;;;;4.73;2.50;;;;;;;25.02;51.81;100489.56;5071167;28;20440;-65
2023/06/28 03:17:56;;;;;;;3.60;2.07;;;;;;;25.02;51.85;100486.69;5067431;28;20179;-65
2023/06/28 03:20:21;;;;;;;4.50;2.17;;;;;;;25.02;51.86;100489.56;5063958;28;20182;-65
2023/06/28 03:22:47;;;;;;;4.13;2.13;;;;;;;25.03;51.75;100488.34;5069973;28;20159;-64
2023/06/28 03:25:12;;;;;;;8.00;2.00;;;;;;;25.01;52.16;100485.88;5088061;28;20188;-65
2023/06/28 03:27:38;;;;;;;6.33;2.47;;;;;;;25.02;51.84;100486.69;5087530;28;20538;-65
2023/06/28 03:30:04;;;;;;;3.73;2.17;;;;;;;25.01;52.10;100491.66;5078697;28;20186;-64
2023/06/28 03:32:29;;;;;;;4.37;2.10;;;;;;;25.01;52.27;100476.38;5078548;28;20202;-64
2023/06/28 03:34:56;;;;;;;3.63;2.23;;;;;;;25.00;51.76;100481.34;5057695;28;20236;-65
2023/06/28 03:37:21;;;;;;;5.93;2.30;;;;;;;25.00;52.29;100484.25;5077124;28;20174;-64
2023/06/28 03:39:47;;;;;;;3.63;2.03;;;;;;;25.01;52.34;100479.25;5084308;28;20552;-64
2023/06/28 03:42:12;;;;;;;6.40;2.90;;;;;;;25.00;52.06;100487.13;5071455;28;20651;-65
2023/06/28 03:44:38;;;;;;;3.90;1.70;;;;;;;25.00;52.55;100487.13;5086015;28;20243;-65
2023/06/28 03:47:03;;;;;;;5.50;2.17;;;;;;;25.00;52.20;100477.63;5071228;28;20183;-65
2023/06/28 03:49:29;;;;;;;5.60;2.20;;;;;;;25.00;52.44;100480.50;5084913;28;20175;-65
2023/06/28 03:51:54;;;;;;;3.93;2.43;;;;;;;24.99;52.28;100473.91;5080880;28;20198;-65
2023/06/28 03:54:20;;;;;;;4.03;2.40;;;;;;;25.00;52.61;100481.34;5065303;28;20174;-65
2023/06/28 03:56:45;;;;;;;3.07;1.87;;;;;;;24.99;52.39;100471.00;5065633;28;20662;-65
2023/06/28 03:59:10;;;;;;;5.00;2.07;;;;;;;24.99;52.45;100473.09;5068282;28;20183;-64
2023/06/28 04:01:36;;;;;;;3.30;2.37;;;;;;;24.99;52.44;100464.44;5068458;28;20276;-65
2023/06/28 04:04:01;;;;;;;3.40;2.03;;;;;;;24.99;52.38;100473.09;5050484;28;20205;-64
2023/06/28 04:06:27;;;;;;;3.30;1.93;;;;;;;24.99;52.20;100473.91;5068779;28;20197;-65
2023/06/28 04:08:52;;;;;;;4.17;2.20;;;;;;;24.98;52.83;100472.25;5074509;28;20186;-65
2023/06/28 04:11:17;;;;;;;3.53;1.90;;;;;;;24.98;52.58;100460.69;5092406;28;20208;-65
2023/06/28 04:13:43;;;;;;;5.00;2.10;;;;;;;24.98;52.54;100466.47;5091681;28;20209;-64
2023/06/28 04:16:08;;;;;;;4.00;2.00;;;;;;;24.97;52.56;100464.84;5090636;28;20178;-64
2023/06/28 04:18:34;;;;;;;5.90;1.87;;;;;;;24.97;52.34;100464.84;5087381;28;20205;-65
2023/06/28 04:20:59;;;;;;;8.57;2.27;;;;;;;24.97;52.82;100473.50;5091197;28;20181;-64
2023/06/28 04:23:25;;;;;;;4.00;2.03;;;;;;;24.96;52.57;100468.97;5090901;28;20162;-65
2023/06/28 04:25:52;;;;;;;4.07;2.13;;;;;;;24.97;52.93;100469.78;5087310;28;20182;-65
2023/06/28 04:28:17;;;;;;;4.13;2.33;;;;;;;24.96;52.80;100474.75;5091058;28;20265;-65
2023/06/28 04:30:43;;;;;;;3.70;2.20;;;;;;;24.97;52.54;100485.06;5079965;28;20859;-65
2023/06/28 04:33:09;;;;;;;4.00;1.70;;;;;;;24.96;52.74;100479.69;5071400;28;20638;-65
2023/06/28 04:35:35;;;;;;;3.50;1.80;;;;;;;24.96;52.63;100492.09;5074173;28;20199;-65
2023/06/28 04:38:04;;;;;;;3.43;2.00;;;;;;;24.97;52.68;100487.94;5070987;28;20440;-65
2023/06/28 04:40:32;;;;;;;6.17;2.00;;;;;;;24.96;52.57;100489.19;5071432;28;20250;-65
2023/06/28 04:42:57;;;;;;;4.40;2.10;;;;;;;24.95;52.59;100492.50;5064506;28;20920;-65
2023/06/28 04:45:35;;;;;;;3.73;2.03;;;;;;;24.96;52.52;100491.25;5090593;28;20416;-65
2023/06/28 04:48:01;;;;;;;4.40;2.10;;;;;;;24.95;52.46;100499.13;5085373;28;20221;-65
2023/06/28 04:50:26;;;;;;;5.70;2.10;;;;;;;24.96;52.77;100494.97;5076609;28;20424;-65
2023/06/28 04:52:52;;;;;;;3.70;2.10;;;;;;;24.94;52.67;100485.91;5071958;28;20554;-65
2023/06/28 04:55:17;;;;;;;5.30;2.00;;;;;;;24.95;52.69;100498.28;5068742;28;20510;-65
2023/06/28 04:57:43;;;;;;;4.90;2.70;;;;;;;24.95;52.62;100495.41;5073466;28;20170;-65
2023/06/28 05:00:11;;;;;;;5.10;2.43;;;;;;;24.94;52.65;100487.97;5090831;28;20279;-65
2023/06/28 05:02:36;;;;;;;5.63;2.47;;;;;;;24.94;53.00;100494.56;5090820;28;20251;-64
2023/06/28 05:05:02;;;;;;;4.23;2.40;;;;;;;24.94;52.62;100485.09;5073114;28;20430;-65
2023/06/28 05:07:28;;;;;;;4.10;2.20;;;;;;;24.94;53.04;100476.41;5088817;28;20580;-64
2023/06/28 05:09:54;;;;;;;5.63;2.23;;;;;;;24.93;52.87;100475.59;5086882;28;20194;-64
2023/06/28 05:12:19;;;;;;;5.73;2.60;;;;;;;24.93;52.82;100474.78;5090920;28;20444;-64
2023/06/28 05:14:45;;;;;;;3.80;2.50;;;;;;;24.93;52.74;100475.59;5051948;28;20486;-65
2023/06/28 05:17:11;;;;;;;5.37;2.43;;;;;;;24.93;52.99;100471.91;5090192;28;20178;-64
2023/06/28 05:19:36;;;;;;;4.37;2.37;;;;;;;24.93;53.06;100477.66;5070775;28;20177;-64
2023/06/28 05:22:02;;;;;;;5.50;2.10;;;;;;;24.92;52.78;100473.94;5068223;28;20204;-65
2023/06/28 05:24:27;;;;;;;2.73;1.90;;;;;;;24.93;53.04;100471.91;5089996;28;20178;-64
2023/06/28 05:26:53;;;;;;;4.10;1.73;;;;;;;24.93;53.04;100478.47;5071758;28;20195;-65
2023/06/28 05:29:19;;;;;;;4.03;2.03;;;;;;;24.92;52.88;100479.72;5090949;28;20181;-64
2023/06/28 05:31:44;;;;;;;5.83;2.20;;;;;;;24.93;52.73;100484.25;5087119;28;20223;-65
2023/06/28 05:34:11;;;;;;;3.67;1.80;;;;;;;24.93;52.70;100480.56;5089684;28;21053;-64
2023/06/28 05:36:36;;;;;;;3.73;1.90;;;;;;;24.94;53.15;100476.41;5079195;28;20613;-64
2023/06/28 05:39:02;;;;;;;6.10;2.43;;;;;;;24.93;53.06;100478.47;5087626;28;20456;-65
2023/06/28 05:41:28;;;;;;;4.00;2.13;;;;;;;24.94;53.29;100482.19;5086530;28;20269;-65
2023/06/28 05:43:54;;;;;;;3.17;2.23;;;;;;;24.93;53.17;100492.13;5088595;28;20190;-65
2023/06/28 05:46:19;;;;;;;4.70;2.67;;;;;;;24.93;52.74;100492.91;5089643;28;20158;-64
2023/06/28 05:48:46;;;;;;;4.10;2.23;;;;;;;24.92;53.05;100485.50;5059920;28;20441;-65
2023/06/28 05:51:13;;;;;;;3.83;1.90;;;;;;;24.93;53.22;100495.00;5076847;28;20210;-65
2023/06/28 05:53:39;;;;;;;3.17;1.90;;;;;;;24.93;53.21;100492.91;5088246;28;20925;-64
2023/06/28 05:56:05;;;;;;;4.80;2.50;;;;;;;24.93;53.01;100498.69;5070755;28;20541;-64
2023/06/28 05:58:30;;;;;;;3.00;1.80;;;;;;;24.92;53.05;100491.28;5035561;28;20258;-65
2023/06/28 06:00:56;;;;;;;3.87;2.53;;;;;;;24.92;53.38;100491.28;5072274;28;20226;-64
2023/06/28 06:03:21;;;;;;;4.70;2.23;;;;;;;24.93;53.31;100483.44;5070014;28;20163;-65
2023/06/28 06:05:47;;;;;;;4.47;2.20;;;;;;;24.92;53.00;100484.66;5072524;28;20540;-64
2023/06/28 06:08:12;;;;;;;3.83;2.07;;;;;;;24.92;53.23;100484.66;5089507;28;20544;-64
2023/06/28 06:10:38;;;;;;;3.17;1.80;;;;;;;24.91;53.18;100480.97;5088996;28;20281;-64
2023/06/28 06:13:03;;;;;;;6.50;2.50;;;;;;;24.92;52.99;100488.41;5086780;28;20211;-64
2023/06/28 06:15:29;;;;;;;3.50;2.17;;;;;;;24.91;53.04;100483.88;5078259;28;20194;-65
2023/06/28 06:17:54;;;;;;;3.50;1.80;;;;;;;24.92;53.31;100485.50;5076290;28;20198;-64
2023/06/28 06:20:20;;;;;;;5.47;2.70;;;;;;;24.92;53.17;100490.44;5064798;28;20209;-65
2023/06/28 06:22:45;;;;;;;5.07;2.60;;;;;;;24.91;53.02;100480.13;5076366;28;20185;-65
2023/06/28 06:25:11;;;;;;;4.73;2.27;;;;;;;24.91;53.10;100483.03;5074973;28;20520;-64
2023/06/28 06:27:36;;;;;;;6.47;2.13;;;;;;;24.91;53.15;100492.53;5070560;28;20175;-65
2023/06/28 06:30:03;;;;;;;5.77;2.40;;;;;;;24.91;53.06;100491.69;5075806;28;20178;-65
2023/06/28 06:32:28;;;;;;;6.43;2.50;;;;;;;24.91;53.47;100489.66;5083494;28;20202;-65
2023/06/28 06:34:57;;;;;;;3.47;2.20;;;;;;;24.90;53.11;100488.00;5080233;28;20463;-65
2023/06/28 06:37:25;;;;;;;6.97;2.73;;;;;;;24.90;53.01;100490.88;5080285;28;20171;-65
2023/06/28 06:39:51;;;;;;;4.83;2.50;;;;;;;24.90;53.12;100499.56;5077681;28;20437;-65
2023/06/28 06:42:16;;;;;;;7.27;2.30;;;;;;;24.90;53.27;100499.56;5053165;28;20463;-64
2023/06/28 06:44:42;;;;;;;3.33;2.00;;;;;;;24.90;52.98;100496.66;5079448;28;20175;-65
2023/06/28 06:47:07;;;;;;;4.00;2.20;;;;;;;24.90;52.90;100499.56;5068757;28;20186;-64
2023/06/28 06:49:32;;;;;;;4.50;1.90;;;;;;;24.91;52.90;100500.38;5055367;28;20178;-64
2023/06/28 06:51:58;;;;;;;4.70;2.40;;;;;;;24.90;53.11;100493.78;5089108;28;20187;-64
2023/06/28 06:54:30;;;;;;;4.57;2.30;;;;;;;24.91;52.89;100500.38;5069458;28;20170;-64
2023/06/28 06:56:58;;;;;;;4.47;2.50;;;;;;;24.91;52.93;100491.69;5088013;28;20189;-64
2023/06/28 06:59:24;;;;;;;5.20;2.50;;;;;;;24.91;53.06;100494.59;5086308;28;20440;-63
2023/06/28 07:01:53;;;;;;;6.00;2.33;;;;;;;24.97;53.37;100498.69;5082311;28;20471;-63
2023/06/28 07:04:24;;;;;;;6.90;3.33;;;;;;;25.18;54.68;100504.38;5069495;28;20234;-64
2023/06/28 07:06:50;;;;;;;11.70;4.60;;;;;;;25.27;54.54;100513.41;5079268;28;20532;-63
2023/06/28 07:09:16;;;;;;;6.40;3.00;;;;;;;25.14;54.24;100512.22;5076406;28;20425;-63
2023/06/28 07:11:41;;;;;;;11.77;3.63;;;;;;;25.08;54.24;100516.81;5073902;28;20206;-63
2023/06/28 07:14:07;;;;;;;8.50;3.13;;;;;;;25.09;54.22;100512.66;5067515;28;20431;-63
2023/06/28 07:16:33;;;;;;;14.40;3.50;;;;;;;25.09;54.28;100507.69;5082103;28;20206;-63
2023/06/28 07:18:58;;;;;;;11.03;3.30;;;;;;;24.99;53.67;100516.44;5069402;28;20551;-63
2023/06/28 07:21:23;;;;;;;10.30;3.30;;;;;;;25.05;53.28;100511.84;5069100;28;20233;-63
2023/06/28 07:23:49;;;;;;;10.87;3.30;;;;;;;25.07;53.06;100509.34;5082361;28;20178;-63
2023/06/28 07:26:14;;;;;;;15.43;3.17;;;;;;;25.07;53.14;100510.19;5078875;28;20186;-63
2023/06/28 07:28:41;;;;;;;8.23;2.87;;;;;;;25.08;53.45;100508.13;5075402;28;20170;-62
2023/06/28 07:31:06;;;;;;;5.50;2.97;;;;;;;25.10;53.37;100512.25;5042501;28;20282;-62
2023/06/28 07:33:32;;;;;;;5.87;2.40;;;;;;;25.04;52.93;100507.31;5067695;28;20515;-63
2023/06/28 07:35:57;;;;;;;7.50;2.87;;;;;;;25.12;53.36;100506.03;5081496;28;20204;-63
2023/06/28 07:38:23;;;;;;;6.93;3.07;;;;;;;25.18;53.03;100498.59;5084931;28;20888;-63
2023/06/28 07:40:48;;;;;;;6.97;3.00;;;;;;;25.13;52.89;100499.84;5085147;28;20268;-63
2023/06/28 07:43:14;;;;;;;9.57;3.03;;;;;;;25.09;52.77;100507.69;5049484;28;20251;-64
2023/06/28 07:45:40;;;;;;;8.43;2.80;;;;;;;25.11;52.91;100504.38;5089236;28;20267;-63
2023/06/28 07:48:06;;;;;;;6.00;3.10;;;;;;;25.12;53.24;100501.09;5070165;28;20448;-63
2023/06/28 07:50:31;;;;;;;7.37;2.53;;;;;;;25.12;53.36;100506.88;5086360;28;20276;-63
2023/06/28 07:52:57;;;;;;;5.23;2.60;;;;;;;25.11;53.13;100511.00;5089048;28;20744;-63
2023/06/28 07:55:22;;;;;;;6.73;2.90;;;;;;;25.10;52.79;100497.81;5079370;28;20181;-63
2023/06/28 07:57:48;;;;;;;6.97;3.07;;;;;;;25.09;52.57;100506.88;5079369;28;20214;-63
2023/06/28 08:00:14;;;;;;;7.83;3.10;;;;;;;25.04;52.64;100499.47;5070883;28;20222;-63
2023/06/28 08:02:39;;;;;;;6.37;2.97;;;;;;;25.05;51.86;100506.06;5072856;28;20220;-62
2023/06/28 08:05:05;;;;;;;11.20;2.83;;;;;;;25.02;51.28;100501.97;5069258;28;20440;-63
2023/06/28 08:07:31;;;;;;;5.03;2.30;;;;;;;25.02;51.87;100495.34;5091454;28;20241;-63
2023/06/28 08:09:57;;;;;;;5.93;2.77;;;;;;;24.98;51.60;100483.81;5079583;28;20489;-63
2023/06/28 08:12:22;;;;;;;7.20;2.50;;;;;;;24.99;51.63;100479.69;5079514;28;20219;-63
2023/06/28 08:14:47;;;;;;;7.07;2.60;;;;;;;24.95;51.08;100484.69;5089775;28;20185;-63
2023/06/28 08:17:13;;;;;;;6.47;3.00;;;;;;;24.93;50.55;100486.34;5056649;28;20577;-63
2023/06/28 08:19:38;;;;;;;11.93;2.80;;;;;;;24.91;50.77;100497.47;5086180;28;20622;-63
2023/06/28 08:22:04;;;;;;;7.50;2.60;;;;;;;24.89;50.27;100497.88;5073437;28;20232;-63
2023/06/28 08:24:29;;;;;;;6.40;2.47;;;;;;;24.85;49.81;100497.09;5074377;28;20552;-63
2023/06/28 08:26:55;;;;;;;7.50;2.73;;;;;;;24.84;49.83;100501.22;5090133;28;20186;-63
2023/06/28 08:29:21;;;;;;;7.90;2.47;;;;;;;24.86;50.15;100500.78;5072677;28;20255;-63
2023/06/28 08:31:47;;;;;;;5.23;2.20;;;;;;;24.86;49.87;100497.91;5061462;28;20655;-63
2023/06/28 08:34:12;;;;;;;6.53;2.03;;;;;;;24.85;50.38;100494.22;5053070;28;20440;-63
2023/06/28 08:36:37;;;;;;;10.33;2.70;;;;;;;24.85;50.38;100494.22;5073755;28;20276;-63
2023/06/28 08:39:03;;;;;;;10.67;3.23;;;;;;;24.87;50.71;100491.72;5074227;28;20627;-62
2023/06/28 08:41:28;;;;;;;14.53;3.37;;;;;;;24.87;50.33;100491.72;5081280;28;20701;-63
2023/06/28 08:43:54;;;;;;;8.93;2.93;;;;;;;24.90;52.19;100488.00;5088459;28;20182;-63
2023/06/28 08:46:21;;;;;;;7.50;2.87;;;;;;;24.92;51.77;100490.44;5085319;28;20621;-62
2023/06/28 08:48:47;;;;;;;7.30;2.50;;;;;;;24.89;51.55;100497.09;5064786;28;20289;-63
2023/06/28 08:51:15;;;;;;;8.20;3.07;;;;;;;24.90;52.04;100496.66;5064857;28;20471;-61
2023/06/28 08:53:44;;;;;;;11.30;2.90;;;;;;;24.91;51.70;100489.66;5070562;28;20206;-61
2023/06/28 08:56:09;;;;;;;11.27;3.00;;;;;;;24.91;51.61;100483.88;5070281;28;20416;-62
2023/06/28 08:58:35;;;;;;;8.00;2.70;;;;;;;24.90;50.69;100492.94;5087203;28;20409;-61
2023/06/28 09:01:00;;;;;;;12.43;3.30;;;;;;;24.90;51.70;100482.22;5076135;28;20242;-61
2023/06/28 09:03:25;;;;;;;9.13;2.70;;;;;;;24.89;51.52;100480.56;5051335;28;20167;-62
2023/06/28 09:05:51;;;;;;;9.80;2.90;;;;;;;24.89;51.39;100480.56;5071520;28;20200;-61
2023/06/28 09:08:18;;;;;;;7.70;2.43;;;;;;;24.90;51.63;100482.22;5051523;28;20630;-61
2023/06/28 09:10:43;;;;;;;10.87;2.60;;;;;;;24.90;51.44;100482.22;5070658;28;20226;-61
2023/06/28 09:13:09;;;;;;;11.80;3.40;;;;;;;24.90;51.68;100488.00;5070152;28;20852;-61
2023/06/28 09:15:37;;;;;;;8.43;2.20;;;;;;;24.90;51.57;100481.38;5083514;28;20187;-62
2023/06/28 09:18:03;;;;;;;9.80;2.33;;;;;;;24.90;51.47;100482.22;5071240;28;20286;-62
2023/06/28 09:20:28;;;;;;;6.17;2.70;;;;;;;24.90;51.48;100488.00;5080477;28;20869;-61
2023/06/28 09:22:54;;;;;;;10.40;2.80;;;;;;;24.90;51.25;100482.22;5071672;28;20178;-61
2023/06/28 09:25:20;;;;;;;11.80;3.60;;;;;;;24.90;51.74;100482.22;5071923;28;20179;-61
2023/06/28 09:27:45;;;;;;;6.67;2.77;;;;;;;24.89;51.33;100479.75;5086391;28;21069;-61
2023/06/28 09:30:16;;;;;;;8.43;2.67;;;;;;;24.88;51.54;100487.56;5071726;28;20182;-61
2023/06/28 09:32:42;;;;;;;9.50;2.37;;;;;;;24.88;51.09;100484.69;5053841;28;20753;-61
2023/06/28 09:35:10;;;;;;;7.30;2.60;;;;;;;24.87;51.03;100488.81;5069657;28;20455;-62
2023/06/28 09:37:37;;;;;;;7.60;2.50;;;;;;;24.87;50.77;100482.22;5070013;28;20189;-61
2023/06/28 09:40:05;;;;;;;6.40;2.67;;;;;;;24.87;51.16;100485.94;5085103;28;20436;-61
2023/06/28 09:42:31;;;;;;;9.03;2.43;;;;;;;24.87;51.12;100485.09;5090278;28;20907;-61
2023/06/28 09:44:56;;;;;;;5.47;2.07;;;;;;;24.87;51.26;100477.28;5090004;28;20432;-62
2023/06/28 09:47:30;;;;;;;7.40;2.90;;;;;;;24.87;50.63;100476.44;5088645;28;20178;-61
2023/06/28 09:49:56;;;;;;;7.87;2.20;;;;;;;24.88;50.76;100472.34;5071023;28;20423;-61
2023/06/28 09:52:22;;;;;;;6.67;2.40;;;;;;;24.88;50.45;100469.44;5068610;28;20552;-61
2023/06/28 09:54:49;;;;;;;5.27;2.33;;;;;;;24.88;50.76;100473.13;5051534;28;20453;-61
2023/06/28 09:57:14;;;;;;;9.33;2.40;;;;;;;24.88;50.24;100476.03;5068181;28;20190;-61
2023/06/28 09:59:40;;;;;;;6.67;2.60;;;;;;;24.88;50.46;100478.91;5089710;28;20404;-61
2023/06/28 10:02:09;;;;;;;6.50;3.10;;;;;;;24.87;50.27;100465.72;5071768;28;20186;-61
2023/06/28 10:04:35;;;;;;;6.10;2.63;;;;;;;24.88;50.50;100460.78;5073040;28;20221;-61
2023/06/28 10:07:02;;;;;;;6.73;2.30;;;;;;;24.88;50.42;100463.66;5034640;28;20433;-61
2023/06/28 10:09:37;;;;;;;5.10;3.00;;;;;;;24.88;50.33;100457.88;5069866;28;20401;-61
2023/06/28 10:12:09;;;;;;;7.87;2.20;;;;;;;24.88;50.42;100455.00;5054913;28;20510;-61
2023/06/28 10:14:38;;;;;;;3.70;2.70;;;;;;;24.87;50.49;100457.06;5066026;28;20424;-61
2023/06/28 10:17:04;;;;;;;4.80;2.30;;;;;;;24.87;50.30;100457.06;5089449;28;20424;-61
2023/06/28 10:19:29;;;;;;;4.07;2.10;;;;;;;24.88;50.37;100463.66;5070680;28;20420;-61
2023/06/28 10:21:55;;;;;;;8.57;2.90;;;;;;;24.88;50.06;100466.56;5061786;28;20179;-61
2023/06/28 10:24:21;;;;;;;4.50;2.13;;;;;;;24.89;49.97;100468.19;5034072;28;20536;-61
2023/06/28 10:26:46;;;;;;;6.03;2.20;;;;;;;24.88;50.27;100464.47;5052865;28;20431;-61
2023/06/28 10:29:11;;;;;;;5.10;2.20;;;;;;;24.88;50.13;100467.34;5050067;28;20182;-61
2023/06/28 10:31:37;;;;;;;6.77;2.73;;;;;;;24.87;50.30;100471.50;5068134;28;20203;-61
2023/06/28 10:34:02;;;;;;;6.53;2.23;;;;;;;24.88;50.23;100475.22;5067802;28;20164;-61
2023/06/28 10:36:29;;;;;;;4.57;2.10;;;;;;;24.89;49.99;100468.19;5070962;28;20186;-61
2023/06/28 10:38:54;;;;;;;5.73;2.20;;;;;;;24.90;49.96;100470.66;5068417;28;20517;-60
2023/06/28 10:41:21;;;;;;;5.40;2.40;;;;;;;24.90;49.96;100466.94;5071852;28;20424;-61
2023/06/28 10:43:46;;;;;;;4.87;2.27;;;;;;;24.90;49.89;100472.72;5066944;28;20178;-61
2023/06/28 10:46:25;;;;;;;4.77;2.13;;;;;;;24.90;49.89;100476.44;5069990;28;20482;-61
2023/06/28 10:48:54;;;;;;;7.10;2.33;;;;;;;24.91;50.10;100480.13;5070325;28;20238;-61
2023/06/28 10:51:33;;;;;;;5.57;2.10;;;;;;;24.90;50.00;100470.66;5081718;28;20535;-61
2023/06/28 10:54:09;;;;;;;8.10;2.40;;;;;;;24.91;49.97;100471.47;5081857;28;20427;-61
2023/06/28 10:56:36;;;;;;;5.30;2.43;;;;;;;24.92;49.62;100471.06;5066932;28;20466;-61
2023/06/28 10:59:01;;;;;;;4.87;2.10;;;;;;;24.93;49.47;100469.81;5068019;28;20991;-61
2023/06/28 11:01:31;;;;;;;5.50;2.47;;;;;;;24.93;50.16;100463.22;5033539;28;20465;-61
2023/06/28 11:04:12;;;;;;;5.87;2.10;;;;;;;24.93;49.75;100454.56;5071349;28;20197;-61
2023/06/28 11:06:39;;;;;;;4.60;2.17;;;;;;;24.92;49.95;100453.72;5068897;28;20527;-60
2023/06/28 11:09:13;;;;;;;7.20;2.50;;;;;;;24.92;50.25;100461.56;5034462;28;20424;-61
2023/06/28 11:11:53;;;;;;;6.90;2.67;;;;;;;24.92;50.15;100461.56;5051559;28;20440;-61
2023/06/28 11:14:30;;;;;;;3.73;1.80;;;;;;;24.92;50.01;100468.16;5080411;28;20420;-61
2023/06/28 11:17:11;;;;;;;5.13;2.47;;;;;;;24.93;50.18;100471.91;5074682;28;20912;-61
2023/06/28 11:19:36;;;;;;;3.20;1.80;;;;;;;24.94;50.12;100468.56;5087516;28;20427;-60